sensor_id;sensor_type;location;lat;lon;timestamp;pressure;altitude;pressure_sealevel;temperature;humidity
52469;BME280;38381;53.688;10.776;2022-12-18T00:01:59;102667.41;;;-7.54;90.56
52469;BME280;38381;53.688;10.776;2022-12-18T00:06:59;102659.41;;;-7.66;91.36
52469;BME280;38381;53.688;10.776;2022-12-18T00:12:00;102671.09;;;-7.66;91.13
52469;BME280;38381;53.688;10.776;2022-12-18T00:17:00;102670.31;;;-7.81;91.29
52469;BME280;38381;53.688;10.776;2022-12-18T00:22:00;102681.47;;;-7.79;91.32
52469;BME280;38381;53.688;10.776;2022-12-18T00:27:01;102678.00;;;-7.80;90.95
52469;BME280;38381;53.688;10.776;2022-12-18T00:32:01;102674.78;;;-7.79;91.02
52469;BME280;38381;53.688;10.776;2022-12-18T00:37:01;102676.41;;;-7.79;91.67
52469;BME280;38381;53.688;10.776;2022-12-18T00:42:02;102671.97;;;-7.89;91.82
52469;BME280;38381;53.688;10.776;2022-12-18T00:47:21;102671.19;;;-7.81;91.78
52469;BME280;38381;53.688;10.776;2022-12-18T00:52:21;102682.53;;;-7.77;91.15
52469;BME280;38381;53.688;10.776;2022-12-18T00:57:29;102700.25;;;-7.92;91.38
52469;BME280;38381;53.688;10.776;2022-12-18T01:02:30;102712.47;;;-7.95;91.04
52469;BME280;38381;53.688;10.776;2022-12-18T01:07:30;102728.34;;;-8.03;91.48
52469;BME280;38381;53.688;10.776;2022-12-18T01:12:31;102727.34;;;-8.19;91.08
52469;BME280;38381;53.688;10.776;2022-12-18T01:17:32;102721.22;;;-8.21;91.30
52469;BME280;38381;53.688;10.776;2022-12-18T01:22:33;102708.00;;;-8.35;90.41
52469;BME280;38381;53.688;10.776;2022-12-18T01:27:34;102707.06;;;-8.35;91.03
52469;BME280;38381;53.688;10.776;2022-12-18T01:32:34;102710.84;;;-8.24;90.42
52469;BME280;38381;53.688;10.776;2022-12-18T01:37:34;102705.09;;;-8.31;90.75
52469;BME280;38381;53.688;10.776;2022-12-18T01:42:35;102716.19;;;-8.21;90.13
52469;BME280;38381;53.688;10.776;2022-12-18T01:47:43;102708.72;;;-8.36;90.32
52469;BME280;38381;53.688;10.776;2022-12-18T01:52:49;102715.00;;;-8.32;90.66
52469;BME280;38381;53.688;10.776;2022-12-18T01:57:52;102696.50;;;-8.40;90.11
52469;BME280;38381;53.688;10.776;2022-12-18T02:02:54;102701.06;;;-8.44;90.59
52469;BME280;38381;53.688;10.776;2022-12-18T02:08:09;102708.78;;;-8.50;90.78
52469;BME280;38381;53.688;10.776;2022-12-18T02:18:31;102721.19;;;-8.44;90.47
52469;BME280;38381;53.688;10.776;2022-12-18T02:28:52;102724.28;;;-8.68;91.39
52469;BME280;38381;53.688;10.776;2022-12-18T02:34:00;102722.69;;;-8.75;91.29
52469;BME280;38381;53.688;10.776;2022-12-18T02:39:02;102730.56;;;-8.72;91.55
52469;BME280;38381;53.688;10.776;2022-12-18T02:44:09;102736.16;;;-8.67;91.04
52469;BME280;38381;53.688;10.776;2022-12-18T02:59:45;102751.41;;;-8.59;90.39
52469;BME280;38381;53.688;10.776;2022-12-18T03:04:54;102756.66;;;-8.72;90.69
52469;BME280;38381;53.688;10.776;2022-12-18T03:09:57;102756.47;;;-8.73;90.59
52469;BME280;38381;53.688;10.776;2022-12-18T03:15:12;102750.91;;;-8.85;90.20
52469;BME280;38381;53.688;10.776;2022-12-18T03:20:17;102755.75;;;-8.79;90.54
52469;BME280;38381;53.688;10.776;2022-12-18T03:25:18;102755.94;;;-8.85;90.33
52469;BME280;38381;53.688;10.776;2022-12-18T03:30:19;102761.50;;;-8.87;90.40
52469;BME280;38381;53.688;10.776;2022-12-18T03:35:26;102768.16;;;-8.88;90.05
52469;BME280;38381;53.688;10.776;2022-12-18T03:46:02;102752.16;;;-8.88;90.47
52469;BME280;38381;53.688;10.776;2022-12-18T03:51:08;102759.16;;;-8.93;90.37
52469;BME280;38381;53.688;10.776;2022-12-18T03:56:11;102755.41;;;-8.89;90.62
52469;BME280;38381;53.688;10.776;2022-12-18T04:01:15;102770.50;;;-8.89;89.84
52469;BME280;38381;53.688;10.776;2022-12-18T04:06:16;102763.47;;;-8.99;89.49
52469;BME280;38381;53.688;10.776;2022-12-18T04:11:17;102759.38;;;-9.06;89.56
52469;BME280;38381;53.688;10.776;2022-12-18T04:16:18;102759.16;;;-8.93;89.52
52469;BME280;38381;53.688;10.776;2022-12-18T04:21:18;102753.81;;;-8.96;89.23
52469;BME280;38381;53.688;10.776;2022-12-18T04:26:19;102762.41;;;-8.94;89.21
52469;BME280;38381;53.688;10.776;2022-12-18T04:31:20;102751.66;;;-9.15;90.11
52469;BME280;38381;53.688;10.776;2022-12-18T04:36:20;102756.47;;;-9.09;90.07
52469;BME280;38381;53.688;10.776;2022-12-18T04:41:21;102760.97;;;-9.14;89.42
52469;BME280;38381;53.688;10.776;2022-12-18T04:46:21;102752.53;;;-9.21;89.91
52469;BME280;38381;53.688;10.776;2022-12-18T04:51:22;102747.50;;;-9.21;89.77
52469;BME280;38381;53.688;10.776;2022-12-18T04:56:22;102754.34;;;-9.20;89.57
52469;BME280;38381;53.688;10.776;2022-12-18T05:01:23;102773.72;;;-9.12;89.39
52469;BME280;38381;53.688;10.776;2022-12-18T05:06:23;102791.31;;;-9.19;89.70
52469;BME280;38381;53.688;10.776;2022-12-18T05:11:23;102784.31;;;-9.15;89.48
52469;BME280;38381;53.688;10.776;2022-12-18T05:16:24;102785.38;;;-9.20;89.43
52469;BME280;38381;53.688;10.776;2022-12-18T05:21:25;102771.41;;;-9.25;88.74
52469;BME280;38381;53.688;10.776;2022-12-18T05:26:26;102778.03;;;-9.18;88.69
52469;BME280;38381;53.688;10.776;2022-12-18T05:31:26;102773.91;;;-9.25;89.73
52469;BME280;38381;53.688;10.776;2022-12-18T05:36:29;102785.03;;;-9.16;89.72
52469;BME280;38381;53.688;10.776;2022-12-18T05:41:30;102795.25;;;-9.14;88.92
52469;BME280;38381;53.688;10.776;2022-12-18T05:46:30;102794.19;;;-9.16;88.65
52469;BME280;38381;53.688;10.776;2022-12-18T05:51:30;102793.81;;;-9.19;88.47
52469;BME280;38381;53.688;10.776;2022-12-18T05:56:31;102802.63;;;-9.23;89.30
52469;BME280;38381;53.688;10.776;2022-12-18T06:01:31;102811.25;;;-9.21;88.80
52469;BME280;38381;53.688;10.776;2022-12-18T06:06:32;102802.06;;;-9.27;89.34
52469;BME280;38381;53.688;10.776;2022-12-18T06:11:32;102805.50;;;-9.27;88.95
52469;BME280;38381;53.688;10.776;2022-12-18T06:16:33;102804.41;;;-9.29;89.10
52469;BME280;38381;53.688;10.776;2022-12-18T06:21:33;102807.63;;;-9.30;88.90
52469;BME280;38381;53.688;10.776;2022-12-18T06:26:34;102804.41;;;-9.29;89.60
52469;BME280;38381;53.688;10.776;2022-12-18T06:31:36;102807.28;;;-9.33;90.23
52469;BME280;38381;53.688;10.776;2022-12-18T06:36:37;102811.72;;;-9.38;89.39
52469;BME280;38381;53.688;10.776;2022-12-18T06:41:37;102817.47;;;-9.32;89.30
52469;BME280;38381;53.688;10.776;2022-12-18T06:46:38;102830.06;;;-9.24;89.64
52469;BME280;38381;53.688;10.776;2022-12-18T06:51:38;102843.34;;;-9.33;89.84
52469;BME280;38381;53.688;10.776;2022-12-18T06:56:39;102845.66;;;-9.34;89.69
52469;BME280;38381;53.688;10.776;2022-12-18T07:01:39;102847.09;;;-9.36;89.26
52469;BME280;38381;53.688;10.776;2022-12-18T07:06:39;102861.44;;;-9.42;88.57
52469;BME280;38381;53.688;10.776;2022-12-18T07:11:40;102858.69;;;-9.58;88.66
52469;BME280;38381;53.688;10.776;2022-12-18T07:16:40;102850.25;;;-9.66;88.76
52469;BME280;38381;53.688;10.776;2022-12-18T07:21:41;102858.97;;;-9.77;88.76
52469;BME280;38381;53.688;10.776;2022-12-18T07:26:41;102850.19;;;-9.80;88.63
52469;BME280;38381;53.688;10.776;2022-12-18T07:31:41;102860.59;;;-9.77;87.97
52469;BME280;38381;53.688;10.776;2022-12-18T07:36:42;102867.38;;;-9.83;88.90
52469;BME280;38381;53.688;10.776;2022-12-18T07:41:42;102870.63;;;-9.84;88.27
52469;BME280;38381;53.688;10.776;2022-12-18T07:46:46;102885.28;;;-9.87;89.56
52469;BME280;38381;53.688;10.776;2022-12-18T07:51:46;102893.22;;;-9.77;89.40
52469;BME280;38381;53.688;10.776;2022-12-18T07:56:49;102895.06;;;-9.69;89.87
52469;BME280;38381;53.688;10.776;2022-12-18T08:01:50;102894.03;;;-9.64;89.36
52469;BME280;38381;53.688;10.776;2022-12-18T08:06:50;102905.56;;;-9.52;89.71
52469;BME280;38381;53.688;10.776;2022-12-18T08:11:50;102898.78;;;-9.38;89.63
52469;BME280;38381;53.688;10.776;2022-12-18T08:16:51;102882.31;;;-9.29;90.00
52469;BME280;38381;53.688;10.776;2022-12-18T08:21:51;102882.50;;;-9.13;90.11
52469;BME280;38381;53.688;10.776;2022-12-18T08:26:52;102884.16;;;-9.06;89.32
52469;BME280;38381;53.688;10.776;2022-12-18T08:31:52;102889.19;;;-8.92;89.12
52469;BME280;38381;53.688;10.776;2022-12-18T08:36:53;102879.16;;;-8.78;89.03
52469;BME280;38381;53.688;10.776;2022-12-18T08:41:53;102875.94;;;-8.69;88.55
52469;BME280;38381;53.688;10.776;2022-12-18T08:47:12;102877.00;;;-8.53;88.05
52469;BME280;38381;53.688;10.776;2022-12-18T08:52:15;102866.41;;;-8.51;87.99
52469;BME280;38381;53.688;10.776;2022-12-18T08:57:16;102865.47;;;-8.37;87.24
52469;BME280;38381;53.688;10.776;2022-12-18T09:02:16;102870.47;;;-8.22;87.87
52469;BME280;38381;53.688;10.776;2022-12-18T09:07:17;102872.94;;;-8.01;87.12
52469;BME280;38381;53.688;10.776;2022-12-18T09:12:17;102861.03;;;-7.95;86.99
52469;BME280;38381;53.688;10.776;2022-12-18T09:17:18;102866.06;;;-7.87;86.87
52469;BME280;38381;53.688;10.776;2022-12-18T09:22:18;102871.81;;;-7.81;86.92
52469;BME280;38381;53.688;10.776;2022-12-18T09:27:18;102874.59;;;-7.64;87.04
52469;BME280;38381;53.688;10.776;2022-12-18T09:32:19;102864.88;;;-7.61;86.33
52469;BME280;38381;53.688;10.776;2022-12-18T09:37:20;102859.41;;;-7.50;86.47
52469;BME280;38381;53.688;10.776;2022-12-18T09:42:21;102874.88;;;-7.16;85.66
52469;BME280;38381;53.688;10.776;2022-12-18T09:47:25;102878.28;;;-7.09;85.49
52469;BME280;38381;53.688;10.776;2022-12-18T09:57:33;102878.16;;;-6.87;85.22
52469;BME280;38381;53.688;10.776;2022-12-18T10:02:37;102869.13;;;-6.85;85.30
52469;BME280;38381;53.688;10.776;2022-12-18T10:07:52;102874.09;;;-6.78;85.29
52469;BME280;38381;53.688;10.776;2022-12-18T10:13:07;102878.19;;;-6.71;84.77
52469;BME280;38381;53.688;10.776;2022-12-18T10:18:19;102861.72;;;-6.60;85.03
52469;BME280;38381;53.688;10.776;2022-12-18T10:23:26;102865.72;;;-6.47;84.57
52469;BME280;38381;53.688;10.776;2022-12-18T10:28:30;102868.81;;;-6.49;84.08
52469;BME280;38381;53.688;10.776;2022-12-18T10:33:32;102878.63;;;-6.36;84.25
52469;BME280;38381;53.688;10.776;2022-12-18T10:38:34;102879.22;;;-6.23;84.23
52469;BME280;38381;53.688;10.776;2022-12-18T10:43:36;102878.06;;;-6.34;84.12
52469;BME280;38381;53.688;10.776;2022-12-18T10:53:52;102886.72;;;-6.32;84.52
52469;BME280;38381;53.688;10.776;2022-12-18T10:59:06;102873.19;;;-6.16;84.68
52469;BME280;38381;53.688;10.776;2022-12-18T11:04:09;102869.56;;;-6.11;84.19
52469;BME280;38381;53.688;10.776;2022-12-18T11:09:20;102854.81;;;-6.15;84.55
52469;BME280;38381;53.688;10.776;2022-12-18T11:24:36;102856.34;;;-6.09;84.85
52469;BME280;38381;53.688;10.776;2022-12-18T11:29:39;102875.66;;;-6.09;84.68
52469;BME280;38381;53.688;10.776;2022-12-18T11:34:42;102873.19;;;-5.84;84.88
52469;BME280;38381;53.688;10.776;2022-12-18T11:39:49;102845.09;;;-6.19;84.61
52469;BME280;38381;53.688;10.776;2022-12-18T11:45:04;102840.97;;;-6.03;84.62
52469;BME280;38381;53.688;10.776;2022-12-18T11:50:33;102845.91;;;-5.96;84.93
52469;BME280;38381;53.688;10.776;2022-12-18T12:07:01;102826.88;;;-6.01;85.74
52469;BME280;38381;53.688;10.776;2022-12-18T12:17:39;102834.75;;;-5.98;86.06
52469;BME280;38381;53.688;10.776;2022-12-18T12:23:06;102834.75;;;-5.98;85.67
52469;BME280;38381;53.688;10.776;2022-12-18T12:28:36;102820.22;;;-5.92;86.07
52469;BME280;38381;53.688;10.776;2022-12-18T12:38:59;102813.28;;;-5.86;86.37
52469;BME280;38381;53.688;10.776;2022-12-18T12:44:03;102793.22;;;-5.84;86.34
52469;BME280;38381;53.688;10.776;2022-12-18T12:49:12;102791.19;;;-5.79;86.45
52469;BME280;38381;53.688;10.776;2022-12-18T12:54:18;102781.88;;;-5.96;87.19
52469;BME280;38381;53.688;10.776;2022-12-18T13:05:01;102775.06;;;-5.89;87.21
52469;BME280;38381;53.688;10.776;2022-12-18T13:15:22;102744.41;;;-5.92;87.54
52469;BME280;38381;53.688;10.776;2022-12-18T13:20:33;102740.13;;;-5.93;87.42
52469;BME280;38381;53.688;10.776;2022-12-18T13:25:36;102719.75;;;-5.94;87.34
52469;BME280;38381;53.688;10.776;2022-12-18T13:36:00;102691.84;;;-5.87;87.89
52469;BME280;38381;53.688;10.776;2022-12-18T13:41:26;102688.00;;;-5.83;87.90
52469;BME280;38381;53.688;10.776;2022-12-18T13:46:42;102712.00;;;-5.71;87.50
52469;BME280;38381;53.688;10.776;2022-12-18T13:51:47;102719.59;;;-5.71;87.48
52469;BME280;38381;53.688;10.776;2022-12-18T13:56:48;102732.38;;;-5.70;87.62
52469;BME280;38381;53.688;10.776;2022-12-18T14:01:57;102736.56;;;-5.70;87.62
52469;BME280;38381;53.688;10.776;2022-12-18T14:07:10;102739.16;;;-5.77;87.74
52469;BME280;38381;53.688;10.776;2022-12-18T14:12:17;102728.59;;;-5.82;88.04
52469;BME280;38381;53.688;10.776;2022-12-18T14:17:42;102731.06;;;-5.91;87.91
52469;BME280;38381;53.688;10.776;2022-12-18T14:22:46;102739.28;;;-5.84;88.32
52469;BME280;38381;53.688;10.776;2022-12-18T14:28:12;102747.16;;;-6.06;88.56
52469;BME280;38381;53.688;10.776;2022-12-18T14:33:16;102738.63;;;-6.15;88.79
52469;BME280;38381;53.688;10.776;2022-12-18T14:38:38;102720.31;;;-6.21;89.01
52469;BME280;38381;53.688;10.776;2022-12-18T14:43:41;102729.34;;;-6.23;89.42
52469;BME280;38381;53.688;10.776;2022-12-18T14:48:42;102714.50;;;-6.20;89.18
52469;BME280;38381;53.688;10.776;2022-12-18T14:53:45;102710.09;;;-6.14;89.36
52469;BME280;38381;53.688;10.776;2022-12-18T14:58:48;102719.56;;;-6.20;88.82
52469;BME280;38381;53.688;10.776;2022-12-18T15:03:51;102716.88;;;-6.22;89.69
52469;BME280;38381;53.688;10.776;2022-12-18T15:08:52;102720.63;;;-6.18;88.88
52469;BME280;38381;53.688;10.776;2022-12-18T15:13:53;102708.81;;;-6.11;89.21
52469;BME280;38381;53.688;10.776;2022-12-18T15:18:53;102701.88;;;-6.20;89.35
52469;BME280;38381;53.688;10.776;2022-12-18T15:23:54;102694.00;;;-6.23;90.20
52469;BME280;38381;53.688;10.776;2022-12-18T15:28:57;102697.66;;;-6.13;89.77
52469;BME280;38381;53.688;10.776;2022-12-18T15:34:09;102694.47;;;-6.03;89.67
52469;BME280;38381;53.688;10.776;2022-12-18T15:39:12;102693.63;;;-5.95;89.88
52469;BME280;38381;53.688;10.776;2022-12-18T15:44:23;102683.53;;;-5.95;90.25
52469;BME280;38381;53.688;10.776;2022-12-18T15:49:24;102682.88;;;-6.01;90.50
52469;BME280;38381;53.688;10.776;2022-12-18T15:54:24;102656.75;;;-5.93;91.16
52469;BME280;38381;53.688;10.776;2022-12-18T15:59:44;102638.06;;;-5.86;91.54
52469;BME280;38381;53.688;10.776;2022-12-18T16:04:44;102632.63;;;-5.73;91.61
52469;BME280;38381;53.688;10.776;2022-12-18T16:09:45;102628.59;;;-5.71;91.75
52469;BME280;38381;53.688;10.776;2022-12-18T16:14:49;102632.22;;;-5.60;92.07
52469;BME280;38381;53.688;10.776;2022-12-18T16:19:49;102627.66;;;-5.56;91.30
52469;BME280;38381;53.688;10.776;2022-12-18T16:24:52;102608.50;;;-5.45;91.60
52469;BME280;38381;53.688;10.776;2022-12-18T16:29:53;102600.03;;;-5.46;91.63
52469;BME280;38381;53.688;10.776;2022-12-18T16:34:59;102602.13;;;-5.41;91.76
52469;BME280;38381;53.688;10.776;2022-12-18T16:40:02;102600.22;;;-5.35;91.75
52469;BME280;38381;53.688;10.776;2022-12-18T16:45:05;102606.19;;;-5.26;90.93
52469;BME280;38381;53.688;10.776;2022-12-18T16:50:06;102603.22;;;-5.22;91.09
52469;BME280;38381;53.688;10.776;2022-12-18T16:55:08;102599.34;;;-5.18;90.28
52469;BME280;38381;53.688;10.776;2022-12-18T17:00:09;102600.22;;;-5.27;90.96
52469;BME280;38381;53.688;10.776;2022-12-18T17:05:10;102586.88;;;-5.17;90.63
52469;BME280;38381;53.688;10.776;2022-12-18T17:10:10;102588.31;;;-5.28;90.83
52469;BME280;38381;53.688;10.776;2022-12-18T17:15:11;102586.38;;;-5.21;90.79
52469;BME280;38381;53.688;10.776;2022-12-18T17:20:11;102579.13;;;-5.10;90.06
52469;BME280;38381;53.688;10.776;2022-12-18T17:25:11;102566.63;;;-5.17;90.44
52469;BME280;38381;53.688;10.776;2022-12-18T17:30:12;102568.25;;;-5.17;90.49
52469;BME280;38381;53.688;10.776;2022-12-18T17:35:12;102545.63;;;-5.16;89.75
52469;BME280;38381;53.688;10.776;2022-12-18T17:40:13;102543.75;;;-4.92;89.42
52469;BME280;38381;53.688;10.776;2022-12-18T17:45:13;102536.88;;;-5.11;89.24
52469;BME280;38381;53.688;10.776;2022-12-18T17:50:14;102542.22;;;-5.08;89.30
52469;BME280;38381;53.688;10.776;2022-12-18T17:55:14;102515.75;;;-4.85;88.24
52469;BME280;38381;53.688;10.776;2022-12-18T18:00:15;102516.34;;;-4.96;88.36
52469;BME280;38381;53.688;10.776;2022-12-18T18:05:16;102506.22;;;-4.96;88.23
52469;BME280;38381;53.688;10.776;2022-12-18T18:10:17;102511.28;;;-4.88;88.08
52469;BME280;38381;53.688;10.776;2022-12-18T18:15:17;102512.03;;;-4.80;87.40
52469;BME280;38381;53.688;10.776;2022-12-18T18:20:18;102499.06;;;-4.83;87.30
52469;BME280;38381;53.688;10.776;2022-12-18T18:25:18;102501.44;;;-4.85;86.93
52469;BME280;38381;53.688;10.776;2022-12-18T18:30:19;102505.91;;;-4.91;86.84
52469;BME280;38381;53.688;10.776;2022-12-18T18:35:22;102489.13;;;-4.90;86.80
52469;BME280;38381;53.688;10.776;2022-12-18T18:40:22;102489.53;;;-4.86;86.79
52469;BME280;38381;53.688;10.776;2022-12-18T18:45:23;102480.47;;;-4.83;86.91
52469;BME280;38381;53.688;10.776;2022-12-18T18:50:23;102469.13;;;-4.70;86.03
52469;BME280;38381;53.688;10.776;2022-12-18T18:55:25;102449.03;;;-4.77;86.05
52469;BME280;38381;53.688;10.776;2022-12-18T19:00:26;102442.22;;;-4.78;85.78
52469;BME280;38381;53.688;10.776;2022-12-18T19:05:26;102449.94;;;-4.68;85.49
52469;BME280;38381;53.688;10.776;2022-12-18T19:10:27;102432.31;;;-4.66;85.76
52469;BME280;38381;53.688;10.776;2022-12-18T19:15:27;102437.72;;;-4.72;85.24
52469;BME280;38381;53.688;10.776;2022-12-18T19:20:28;102417.75;;;-4.69;85.39
52469;BME280;38381;53.688;10.776;2022-12-18T19:25:28;102413.25;;;-4.62;85.30
52469;BME280;38381;53.688;10.776;2022-12-18T19:30:37;102395.31;;;-4.83;86.05
52469;BME280;38381;53.688;10.776;2022-12-18T19:35:38;102386.53;;;-4.78;85.94
52469;BME280;38381;53.688;10.776;2022-12-18T19:40:42;102395.00;;;-4.77;86.12
52469;BME280;38381;53.688;10.776;2022-12-18T19:45:43;102393.47;;;-4.67;85.83
52469;BME280;38381;53.688;10.776;2022-12-18T19:50:43;102371.34;;;-4.78;86.14
52469;BME280;38381;53.688;10.776;2022-12-18T19:55:44;102359.41;;;-4.79;86.73
52469;BME280;38381;53.688;10.776;2022-12-18T20:00:44;102345.72;;;-4.81;86.86
52469;BME280;38381;53.688;10.776;2022-12-18T20:05:45;102343.97;;;-4.82;87.20
52469;BME280;38381;53.688;10.776;2022-12-18T20:10:45;102348.72;;;-4.85;86.61
52469;BME280;38381;53.688;10.776;2022-12-18T20:15:48;102339.03;;;-4.80;87.08
52469;BME280;38381;53.688;10.776;2022-12-18T20:20:48;102335.88;;;-4.69;86.42
52469;BME280;38381;53.688;10.776;2022-12-18T20:25:51;102323.47;;;-4.66;86.61
52469;BME280;38381;53.688;10.776;2022-12-18T20:31:05;102322.44;;;-4.68;86.34
52469;BME280;38381;53.688;10.776;2022-12-18T20:36:11;102325.44;;;-4.72;86.21
52469;BME280;38381;53.688;10.776;2022-12-18T20:41:18;102318.88;;;-4.61;85.72
52469;BME280;38381;53.688;10.776;2022-12-18T20:46:18;102304.94;;;-4.75;86.25
52469;BME280;38381;53.688;10.776;2022-12-18T20:51:20;102295.84;;;-4.73;86.05
52469;BME280;38381;53.688;10.776;2022-12-18T20:56:21;102291.03;;;-4.70;86.00
52469;BME280;38381;53.688;10.776;2022-12-18T21:01:23;102293.56;;;-4.61;85.64
52469;BME280;38381;53.688;10.776;2022-12-18T21:06:23;102299.19;;;-4.64;85.05
52469;BME280;38381;53.688;10.776;2022-12-18T21:11:27;102285.59;;;-4.56;85.20
52469;BME280;38381;53.688;10.776;2022-12-18T21:16:47;102265.19;;;-4.49;84.69
52469;BME280;38381;53.688;10.776;2022-12-18T21:21:48;102258.78;;;-4.54;84.54
52469;BME280;38381;53.688;10.776;2022-12-18T21:26:48;102247.31;;;-4.50;85.25
52469;BME280;38381;53.688;10.776;2022-12-18T21:31:52;102244.22;;;-4.37;84.55
52469;BME280;38381;53.688;10.776;2022-12-18T21:36:55;102232.75;;;-4.53;85.33
52469;BME280;38381;53.688;10.776;2022-12-18T21:41:57;102232.06;;;-4.41;84.92
52469;BME280;38381;53.688;10.776;2022-12-18T21:47:16;102212.47;;;-4.53;85.13
52469;BME280;38381;53.688;10.776;2022-12-18T21:52:17;102209.47;;;-4.49;85.10
52469;BME280;38381;53.688;10.776;2022-12-18T21:57:18;102185.88;;;-4.39;85.06
52469;BME280;38381;53.688;10.776;2022-12-18T22:02:20;102168.88;;;-4.40;85.29
52469;BME280;38381;53.688;10.776;2022-12-18T22:07:21;102142.06;;;-4.38;84.63
52469;BME280;38381;53.688;10.776;2022-12-18T22:12:21;102118.78;;;-4.34;84.51
52469;BME280;38381;53.688;10.776;2022-12-18T22:17:37;102113.53;;;-4.27;84.05
52469;BME280;38381;53.688;10.776;2022-12-18T22:22:37;102110.00;;;-4.18;82.88
52469;BME280;38381;53.688;10.776;2022-12-18T22:27:38;102196.75;;;-4.02;82.72
52469;BME280;38381;53.688;10.776;2022-12-18T22:32:38;102189.41;;;-3.99;82.06
52469;BME280;38381;53.688;10.776;2022-12-18T22:37:39;102194.06;;;-4.03;81.92
52469;BME280;38381;53.688;10.776;2022-12-18T22:42:51;102186.66;;;-4.11;82.29
52469;BME280;38381;53.688;10.776;2022-12-18T22:47:52;102180.56;;;-3.94;82.33
52469;BME280;38381;53.688;10.776;2022-12-18T22:52:53;102173.88;;;-4.12;82.89
52469;BME280;38381;53.688;10.776;2022-12-18T22:57:53;102153.81;;;-3.90;81.98
52469;BME280;38381;53.688;10.776;2022-12-18T23:02:53;102108.53;;;-4.06;82.23
52469;BME280;38381;53.688;10.776;2022-12-18T23:07:54;102118.41;;;-4.09;82.18
52469;BME280;38381;53.688;10.776;2022-12-18T23:12:54;102108.53;;;-4.06;82.19
52469;BME280;38381;53.688;10.776;2022-12-18T23:17:56;102114.00;;;-4.01;81.96
52469;BME280;38381;53.688;10.776;2022-12-18T23:22:57;102087.78;;;-4.02;81.85
52469;BME280;38381;53.688;10.776;2022-12-18T23:27:57;102081.72;;;-3.94;82.10
52469;BME280;38381;53.688;10.776;2022-12-18T23:32:58;102060.94;;;-4.00;82.42
52469;BME280;38381;53.688;10.776;2022-12-18T23:37:59;102044.19;;;-4.08;82.82
52469;BME280;38381;53.688;10.776;2022-12-18T23:42:59;102028.88;;;-3.99;81.83
52469;BME280;38381;53.688;10.776;2022-12-18T23:47:59;102029.16;;;-3.86;81.88
52469;BME280;38381;53.688;10.776;2022-12-18T23:53:00;102010.34;;;-4.09;81.94
52469;BME280;38381;53.688;10.776;2022-12-18T23:58:00;102022.13;;;-4.09;82.37
